sensor_id;sensor_type;location;lat;lon;timestamp;temperature;humidity
59505;DHT22;45321;53.200;5.814;2024-02-21T00:00:19;9.30;92.80
59505;DHT22;45321;53.200;5.814;2024-02-21T00:02:46;9.30;92.90
59505;DHT22;45321;53.200;5.814;2024-02-21T00:05:11;9.30;93.00
59505;DHT22;45321;53.200;5.814;2024-02-21T00:07:37;9.30;93.00
59505;DHT22;45321;53.200;5.814;2024-02-21T00:10:03;9.40;93.10
59505;DHT22;45321;53.200;5.814;2024-02-21T00:12:29;9.30;93.10
59505;DHT22;45321;53.200;5.814;2024-02-21T00:14:54;9.30;93.10
59505;DHT22;45321;53.200;5.814;2024-02-21T00:17:20;9.30;93.10
59505;DHT22;45321;53.200;5.814;2024-02-21T00:19:46;9.30;93.10
59505;DHT22;45321;53.200;5.814;2024-02-21T00:22:11;9.30;93.20
59505;DHT22;45321;53.200;5.814;2024-02-21T00:24:37;9.30;93.10
59505;DHT22;45321;53.200;5.814;2024-02-21T00:27:03;9.30;93.10
59505;DHT22;45321;53.200;5.814;2024-02-21T00:29:29;9.30;93.10
59505;DHT22;45321;53.200;5.814;2024-02-21T00:31:54;9.30;93.10
59505;DHT22;45321;53.200;5.814;2024-02-21T00:34:20;9.30;93.10
59505;DHT22;45321;53.200;5.814;2024-02-21T00:36:46;9.30;93.10
59505;DHT22;45321;53.200;5.814;2024-02-21T00:39:11;9.30;93.10
59505;DHT22;45321;53.200;5.814;2024-02-21T00:41:37;9.30;93.20
59505;DHT22;45321;53.200;5.814;2024-02-21T00:44:03;9.30;93.20
59505;DHT22;45321;53.200;5.814;2024-02-21T00:46:31;9.30;93.20
59505;DHT22;45321;53.200;5.814;2024-02-21T00:48:57;9.30;93.30
59505;DHT22;45321;53.200;5.814;2024-02-21T00:51:22;9.30;93.40
59505;DHT22;45321;53.200;5.814;2024-02-21T00:53:48;9.30;93.40
59505;DHT22;45321;53.200;5.814;2024-02-21T00:56:14;9.30;93.50
59505;DHT22;45321;53.200;5.814;2024-02-21T00:58:39;9.30;93.50
59505;DHT22;45321;53.200;5.814;2024-02-21T01:01:05;9.30;93.70
59505;DHT22;45321;53.200;5.814;2024-02-21T01:03:31;9.20;93.60
59505;DHT22;45321;53.200;5.814;2024-02-21T01:05:56;9.20;93.70
59505;DHT22;45321;53.200;5.814;2024-02-21T01:08:22;9.20;93.80
59505;DHT22;45321;53.200;5.814;2024-02-21T01:10:48;9.20;93.80
59505;DHT22;45321;53.200;5.814;2024-02-21T01:13:13;9.20;93.90
59505;DHT22;45321;53.200;5.814;2024-02-21T01:15:39;9.20;94.00
59505;DHT22;45321;53.200;5.814;2024-02-21T01:18:05;9.20;94.00
59505;DHT22;45321;53.200;5.814;2024-02-21T01:20:32;9.20;94.10
59505;DHT22;45321;53.200;5.814;2024-02-21T01:22:57;9.30;94.00
59505;DHT22;45321;53.200;5.814;2024-02-21T01:25:23;9.20;94.10
59505;DHT22;45321;53.200;5.814;2024-02-21T01:27:49;9.30;94.10
59505;DHT22;45321;53.200;5.814;2024-02-21T01:30:14;9.20;94.10
59505;DHT22;45321;53.200;5.814;2024-02-21T01:32:40;9.20;94.10
59505;DHT22;45321;53.200;5.814;2024-02-21T01:35:07;9.20;94.10
59505;DHT22;45321;53.200;5.814;2024-02-21T01:37:33;9.20;94.10
59505;DHT22;45321;53.200;5.814;2024-02-21T01:39:59;9.20;94.10
59505;DHT22;45321;53.200;5.814;2024-02-21T01:42:25;9.20;94.10
59505;DHT22;45321;53.200;5.814;2024-02-21T01:44:50;9.20;94.10
59505;DHT22;45321;53.200;5.814;2024-02-21T01:47:16;9.20;94.10
59505;DHT22;45321;53.200;5.814;2024-02-21T01:49:43;9.20;94.10
59505;DHT22;45321;53.200;5.814;2024-02-21T01:52:09;9.10;94.10
59505;DHT22;45321;53.200;5.814;2024-02-21T01:54:36;9.10;94.20
59505;DHT22;45321;53.200;5.814;2024-02-21T01:57:02;9.10;94.20
59505;DHT22;45321;53.200;5.814;2024-02-21T01:59:28;9.20;94.30
59505;DHT22;45321;53.200;5.814;2024-02-21T02:01:55;9.20;94.20
59505;DHT22;45321;53.200;5.814;2024-02-21T02:04:23;9.10;94.20
59505;DHT22;45321;53.200;5.814;2024-02-21T02:06:51;9.20;94.20
59505;DHT22;45321;53.200;5.814;2024-02-21T02:09:18;9.20;94.20
59505;DHT22;45321;53.200;5.814;2024-02-21T02:11:44;9.20;94.30
59505;DHT22;45321;53.200;5.814;2024-02-21T02:14:09;9.10;94.20
59505;DHT22;45321;53.200;5.814;2024-02-21T02:16:35;9.20;94.20
59505;DHT22;45321;53.200;5.814;2024-02-21T02:19:01;9.20;94.20
59505;DHT22;45321;53.200;5.814;2024-02-21T02:21:32;9.20;94.10
59505;DHT22;45321;53.200;5.814;2024-02-21T02:24:00;9.20;94.10
59505;DHT22;45321;53.200;5.814;2024-02-21T02:26:26;9.20;94.10
59505;DHT22;45321;53.200;5.814;2024-02-21T02:28:53;9.20;94.00
59505;DHT22;45321;53.200;5.814;2024-02-21T02:31:18;9.20;94.00
59505;DHT22;45321;53.200;5.814;2024-02-21T02:33:44;9.20;93.90
59505;DHT22;45321;53.200;5.814;2024-02-21T02:36:10;9.20;93.90
59505;DHT22;45321;53.200;5.814;2024-02-21T02:38:35;9.20;93.90
59505;DHT22;45321;53.200;5.814;2024-02-21T02:41:01;9.20;93.80
59505;DHT22;45321;53.200;5.814;2024-02-21T02:43:27;9.20;93.70
59505;DHT22;45321;53.200;5.814;2024-02-21T02:45:52;9.20;93.70
59505;DHT22;45321;53.200;5.814;2024-02-21T02:48:18;9.20;93.70
59505;DHT22;45321;53.200;5.814;2024-02-21T02:50:45;9.20;93.60
59505;DHT22;45321;53.200;5.814;2024-02-21T02:53:11;9.20;93.60
59505;DHT22;45321;53.200;5.814;2024-02-21T02:55:37;9.20;93.60
59505;DHT22;45321;53.200;5.814;2024-02-21T02:58:03;9.20;93.60
59505;DHT22;45321;53.200;5.814;2024-02-21T03:00:28;9.20;93.50
59505;DHT22;45321;53.200;5.814;2024-02-21T03:02:54;9.10;93.50
59505;DHT22;45321;53.200;5.814;2024-02-21T03:05:21;9.20;93.50
59505;DHT22;45321;53.200;5.814;2024-02-21T03:07:47;9.10;93.50
59505;DHT22;45321;53.200;5.814;2024-02-21T03:10:14;9.10;93.50
59505;DHT22;45321;53.200;5.814;2024-02-21T03:12:42;9.10;93.50
59505;DHT22;45321;53.200;5.814;2024-02-21T03:15:08;9.10;93.50
59505;DHT22;45321;53.200;5.814;2024-02-21T03:17:34;9.10;93.40
59505;DHT22;45321;53.200;5.814;2024-02-21T03:20:01;9.20;93.40
59505;DHT22;45321;53.200;5.814;2024-02-21T03:22:26;9.10;93.40
59505;DHT22;45321;53.200;5.814;2024-02-21T03:24:52;9.20;93.40
59505;DHT22;45321;53.200;5.814;2024-02-21T03:27:18;9.20;93.40
59505;DHT22;45321;53.200;5.814;2024-02-21T03:29:44;9.10;93.40
59505;DHT22;45321;53.200;5.814;2024-02-21T03:32:09;9.20;93.40
59505;DHT22;45321;53.200;5.814;2024-02-21T03:34:35;9.20;93.40
59505;DHT22;45321;53.200;5.814;2024-02-21T03:37:01;9.20;93.40
59505;DHT22;45321;53.200;5.814;2024-02-21T03:39:27;9.30;93.30
59505;DHT22;45321;53.200;5.814;2024-02-21T03:41:53;9.20;93.30
59505;DHT22;45321;53.200;5.814;2024-02-21T03:44:19;9.30;93.30
59505;DHT22;45321;53.200;5.814;2024-02-21T03:46:44;9.30;93.30
59505;DHT22;45321;53.200;5.814;2024-02-21T03:49:10;9.20;93.30
59505;DHT22;45321;53.200;5.814;2024-02-21T03:51:37;9.30;93.20
59505;DHT22;45321;53.200;5.814;2024-02-21T03:54:02;9.30;93.20
59505;DHT22;45321;53.200;5.814;2024-02-21T03:56:28;9.30;93.20
59505;DHT22;45321;53.200;5.814;2024-02-21T03:58:54;9.30;93.20
59505;DHT22;45321;53.200;5.814;2024-02-21T04:01:20;9.30;93.20
59505;DHT22;45321;53.200;5.814;2024-02-21T04:03:46;9.30;93.10
59505;DHT22;45321;53.200;5.814;2024-02-21T04:06:12;9.30;93.10
59505;DHT22;45321;53.200;5.814;2024-02-21T04:08:39;9.30;93.10
59505;DHT22;45321;53.200;5.814;2024-02-21T04:11:04;9.30;93.10
59505;DHT22;45321;53.200;5.814;2024-02-21T04:13:30;9.30;93.10
59505;DHT22;45321;53.200;5.814;2024-02-21T04:15:56;9.30;93.10
59505;DHT22;45321;53.200;5.814;2024-02-21T04:18:22;9.30;93.10
59505;DHT22;45321;53.200;5.814;2024-02-21T04:20:48;9.30;93.00
59505;DHT22;45321;53.200;5.814;2024-02-21T04:23:13;9.30;93.00
59505;DHT22;45321;53.200;5.814;2024-02-21T04:25:39;9.30;93.00
59505;DHT22;45321;53.200;5.814;2024-02-21T04:28:05;9.30;93.00
59505;DHT22;45321;53.200;5.814;2024-02-21T04:30:31;9.30;92.90
59505;DHT22;45321;53.200;5.814;2024-02-21T04:32:57;9.30;92.90
59505;DHT22;45321;53.200;5.814;2024-02-21T04:35:22;9.30;92.90
59505;DHT22;45321;53.200;5.814;2024-02-21T04:37:49;9.30;92.90
59505;DHT22;45321;53.200;5.814;2024-02-21T04:40:15;9.30;92.80
59505;DHT22;45321;53.200;5.814;2024-02-21T04:42:42;9.30;92.90
59505;DHT22;45321;53.200;5.814;2024-02-21T04:45:08;9.30;92.90
59505;DHT22;45321;53.200;5.814;2024-02-21T04:47:34;9.30;92.80
59505;DHT22;45321;53.200;5.814;2024-02-21T04:50:00;9.30;92.80
59505;DHT22;45321;53.200;5.814;2024-02-21T04:52:26;9.40;92.80
59505;DHT22;45321;53.200;5.814;2024-02-21T04:54:51;9.40;92.80
59505;DHT22;45321;53.200;5.814;2024-02-21T04:57:17;9.30;92.80
59505;DHT22;45321;53.200;5.814;2024-02-21T04:59:46;9.30;92.70
59505;DHT22;45321;53.200;5.814;2024-02-21T05:02:13;9.40;92.80
59505;DHT22;45321;53.200;5.814;2024-02-21T05:04:39;9.30;92.80
59505;DHT22;45321;53.200;5.814;2024-02-21T05:07:07;9.30;92.80
59505;DHT22;45321;53.200;5.814;2024-02-21T05:09:33;9.30;92.70
59505;DHT22;45321;53.200;5.814;2024-02-21T05:11:58;9.30;92.80
59505;DHT22;45321;53.200;5.814;2024-02-21T05:14:25;9.30;92.80
59505;DHT22;45321;53.200;5.814;2024-02-21T05:16:52;9.30;92.80
59505;DHT22;45321;53.200;5.814;2024-02-21T05:19:18;9.30;92.80
59505;DHT22;45321;53.200;5.814;2024-02-21T05:21:44;9.30;92.90
59505;DHT22;45321;53.200;5.814;2024-02-21T05:24:10;9.30;92.90
59505;DHT22;45321;53.200;5.814;2024-02-21T05:26:35;9.30;92.90
59505;DHT22;45321;53.200;5.814;2024-02-21T05:29:01;9.30;92.90
59505;DHT22;45321;53.200;5.814;2024-02-21T05:32:03;9.30;92.90
59505;DHT22;45321;53.200;5.814;2024-02-21T05:34:28;9.30;92.90
59505;DHT22;45321;53.200;5.814;2024-02-21T05:36:54;9.30;93.00
59505;DHT22;45321;53.200;5.814;2024-02-21T05:39:20;9.20;93.00
59505;DHT22;45321;53.200;5.814;2024-02-21T05:41:48;9.30;93.00
59505;DHT22;45321;53.200;5.814;2024-02-21T05:44:15;9.30;93.00
59505;DHT22;45321;53.200;5.814;2024-02-21T05:46:41;9.30;93.00
59505;DHT22;45321;53.200;5.814;2024-02-21T05:49:06;9.30;93.00
59505;DHT22;45321;53.200;5.814;2024-02-21T05:51:33;9.30;93.00
59505;DHT22;45321;53.200;5.814;2024-02-21T05:53:59;9.20;93.00
59505;DHT22;45321;53.200;5.814;2024-02-21T05:56:24;9.20;93.00
59505;DHT22;45321;53.200;5.814;2024-02-21T05:58:50;9.20;93.10
59505;DHT22;45321;53.200;5.814;2024-02-21T06:01:16;9.20;93.10
59505;DHT22;45321;53.200;5.814;2024-02-21T06:03:43;9.20;93.10
59505;DHT22;45321;53.200;5.814;2024-02-21T06:06:09;9.20;93.10
59505;DHT22;45321;53.200;5.814;2024-02-21T06:08:34;9.20;93.10
59505;DHT22;45321;53.200;5.814;2024-02-21T06:11:00;9.20;93.00
59505;DHT22;45321;53.200;5.814;2024-02-21T06:13:29;9.20;93.10
59505;DHT22;45321;53.200;5.814;2024-02-21T06:15:55;9.20;93.10
59505;DHT22;45321;53.200;5.814;2024-02-21T06:18:21;9.20;93.10
59505;DHT22;45321;53.200;5.814;2024-02-21T06:20:47;9.20;93.10
59505;DHT22;45321;53.200;5.814;2024-02-21T06:23:14;9.20;93.20
59505;DHT22;45321;53.200;5.814;2024-02-21T06:25:41;9.20;93.20
59505;DHT22;45321;53.200;5.814;2024-02-21T06:28:06;9.30;93.20
59505;DHT22;45321;53.200;5.814;2024-02-21T06:30:32;9.20;93.10
59505;DHT22;45321;53.200;5.814;2024-02-21T06:32:58;9.20;93.20
59505;DHT22;45321;53.200;5.814;2024-02-21T06:35:24;9.20;93.10
59505;DHT22;45321;53.200;5.814;2024-02-21T06:37:51;9.20;93.10
59505;DHT22;45321;53.200;5.814;2024-02-21T06:40:26;9.20;93.20
59505;DHT22;45321;53.200;5.814;2024-02-21T06:42:51;9.30;93.20
59505;DHT22;45321;53.200;5.814;2024-02-21T06:45:17;9.30;93.10
59505;DHT22;45321;53.200;5.814;2024-02-21T06:47:43;9.30;93.10
59505;DHT22;45321;53.200;5.814;2024-02-21T06:50:09;9.30;93.20
59505;DHT22;45321;53.200;5.814;2024-02-21T06:52:36;9.30;93.20
59505;DHT22;45321;53.200;5.814;2024-02-21T06:55:02;9.30;93.10
59505;DHT22;45321;53.200;5.814;2024-02-21T06:57:29;9.30;93.20
59505;DHT22;45321;53.200;5.814;2024-02-21T06:59:54;9.30;93.20
59505;DHT22;45321;53.200;5.814;2024-02-21T07:02:20;9.20;93.20
59505;DHT22;45321;53.200;5.814;2024-02-21T07:04:46;9.30;93.20
59505;DHT22;45321;53.200;5.814;2024-02-21T07:07:12;9.20;93.20
59505;DHT22;45321;53.200;5.814;2024-02-21T07:09:38;9.30;93.20
59505;DHT22;45321;53.200;5.814;2024-02-21T07:12:04;9.30;93.30
59505;DHT22;45321;53.200;5.814;2024-02-21T07:14:31;9.30;93.30
59505;DHT22;45321;53.200;5.814;2024-02-21T07:16:57;9.30;93.30
59505;DHT22;45321;53.200;5.814;2024-02-21T07:19:23;9.30;93.40
59505;DHT22;45321;53.200;5.814;2024-02-21T07:21:49;9.20;93.40
59505;DHT22;45321;53.200;5.814;2024-02-21T07:24:15;9.30;93.40
59505;DHT22;45321;53.200;5.814;2024-02-21T07:26:44;9.30;93.40
59505;DHT22;45321;53.200;5.814;2024-02-21T07:29:09;9.30;93.40
59505;DHT22;45321;53.200;5.814;2024-02-21T07:31:42;9.30;93.50
59505;DHT22;45321;53.200;5.814;2024-02-21T07:34:08;9.30;93.50
59505;DHT22;45321;53.200;5.814;2024-02-21T07:36:34;9.30;93.50
59505;DHT22;45321;53.200;5.814;2024-02-21T07:39:00;9.30;93.60
59505;DHT22;45321;53.200;5.814;2024-02-21T07:41:26;9.30;93.50
59505;DHT22;45321;53.200;5.814;2024-02-21T07:43:54;9.30;93.60
59505;DHT22;45321;53.200;5.814;2024-02-21T07:46:20;9.20;93.60
59505;DHT22;45321;53.200;5.814;2024-02-21T07:48:46;9.30;93.70
59505;DHT22;45321;53.200;5.814;2024-02-21T07:51:12;9.30;93.80
59505;DHT22;45321;53.200;5.814;2024-02-21T07:53:41;9.20;93.80
59505;DHT22;45321;53.200;5.814;2024-02-21T07:56:14;9.30;93.80
59505;DHT22;45321;53.200;5.814;2024-02-21T07:58:43;9.30;93.90
59505;DHT22;45321;53.200;5.814;2024-02-21T08:01:09;9.30;93.90
59505;DHT22;45321;53.200;5.814;2024-02-21T08:03:35;9.30;93.90
59505;DHT22;45321;53.200;5.814;2024-02-21T08:06:01;9.20;93.90
59505;DHT22;45321;53.200;5.814;2024-02-21T08:08:27;9.20;94.00
59505;DHT22;45321;53.200;5.814;2024-02-21T08:10:52;9.20;94.00
59505;DHT22;45321;53.200;5.814;2024-02-21T08:13:18;9.30;94.10
59505;DHT22;45321;53.200;5.814;2024-02-21T08:15:44;9.30;94.10
59505;DHT22;45321;53.200;5.814;2024-02-21T08:18:10;9.30;94.00
59505;DHT22;45321;53.200;5.814;2024-02-21T08:20:35;9.30;94.00
59505;DHT22;45321;53.200;5.814;2024-02-21T08:23:01;9.30;94.00
59505;DHT22;45321;53.200;5.814;2024-02-21T08:25:27;9.30;93.90
59505;DHT22;45321;53.200;5.814;2024-02-21T08:27:58;9.30;93.90
59505;DHT22;45321;53.200;5.814;2024-02-21T08:30:24;9.30;93.90
59505;DHT22;45321;53.200;5.814;2024-02-21T08:32:50;9.30;93.80
59505;DHT22;45321;53.200;5.814;2024-02-21T08:35:16;9.30;93.70
59505;DHT22;45321;53.200;5.814;2024-02-21T08:37:44;9.30;93.70
59505;DHT22;45321;53.200;5.814;2024-02-21T08:40:10;9.30;93.60
59505;DHT22;45321;53.200;5.814;2024-02-21T08:42:38;9.30;93.50
59505;DHT22;45321;53.200;5.814;2024-02-21T08:45:04;9.30;93.40
59505;DHT22;45321;53.200;5.814;2024-02-21T08:47:30;9.30;93.30
59505;DHT22;45321;53.200;5.814;2024-02-21T08:49:56;9.30;93.30
59505;DHT22;45321;53.200;5.814;2024-02-21T08:52:22;9.40;93.20
59505;DHT22;45321;53.200;5.814;2024-02-21T08:54:47;9.40;93.20
59505;DHT22;45321;53.200;5.814;2024-02-21T08:57:13;9.40;93.10
59505;DHT22;45321;53.200;5.814;2024-02-21T08:59:40;9.40;93.10
59505;DHT22;45321;53.200;5.814;2024-02-21T09:02:05;9.40;93.00
59505;DHT22;45321;53.200;5.814;2024-02-21T09:04:32;9.50;93.00
59505;DHT22;45321;53.200;5.814;2024-02-21T09:06:59;9.50;92.90
59505;DHT22;45321;53.200;5.814;2024-02-21T09:09:25;9.50;92.80
59505;DHT22;45321;53.200;5.814;2024-02-21T09:11:50;9.50;92.80
59505;DHT22;45321;53.200;5.814;2024-02-21T09:14:17;9.50;92.70
59505;DHT22;45321;53.200;5.814;2024-02-21T09:16:42;9.50;92.60
59505;DHT22;45321;53.200;5.814;2024-02-21T09:19:09;9.50;92.60
59505;DHT22;45321;53.200;5.814;2024-02-21T09:21:37;9.50;92.40
59505;DHT22;45321;53.200;5.814;2024-02-21T09:24:03;9.50;92.30
59505;DHT22;45321;53.200;5.814;2024-02-21T09:26:29;9.50;92.30
59505;DHT22;45321;53.200;5.814;2024-02-21T09:28:55;9.50;92.20
59505;DHT22;45321;53.200;5.814;2024-02-21T09:31:21;9.50;92.10
59505;DHT22;45321;53.200;5.814;2024-02-21T09:33:46;9.50;92.10
59505;DHT22;45321;53.200;5.814;2024-02-21T09:36:12;9.50;92.00
59505;DHT22;45321;53.200;5.814;2024-02-21T09:38:40;9.60;91.90
59505;DHT22;45321;53.200;5.814;2024-02-21T09:43:41;9.60;91.70
59505;DHT22;45321;53.200;5.814;2024-02-21T09:46:08;9.60;91.60
59505;DHT22;45321;53.200;5.814;2024-02-21T09:48:54;9.60;91.50
59505;DHT22;45321;53.200;5.814;2024-02-21T09:51:25;9.70;91.50
59505;DHT22;45321;53.200;5.814;2024-02-21T09:53:53;9.70;91.30
59505;DHT22;45321;53.200;5.814;2024-02-21T09:56:19;9.70;91.20
59505;DHT22;45321;53.200;5.814;2024-02-21T09:58:46;9.70;91.00
59505;DHT22;45321;53.200;5.814;2024-02-21T10:01:12;9.80;90.90
59505;DHT22;45321;53.200;5.814;2024-02-21T10:03:38;9.70;90.80
59505;DHT22;45321;53.200;5.814;2024-02-21T10:06:04;9.80;90.80
59505;DHT22;45321;53.200;5.814;2024-02-21T10:08:30;9.70;90.70
59505;DHT22;45321;53.200;5.814;2024-02-21T10:10:55;9.70;90.50
59505;DHT22;45321;53.200;5.814;2024-02-21T10:13:26;9.80;90.40
59505;DHT22;45321;53.200;5.814;2024-02-21T10:16:06;9.80;90.40
59505;DHT22;45321;53.200;5.814;2024-02-21T10:18:33;9.80;90.40
59505;DHT22;45321;53.200;5.814;2024-02-21T10:21:06;9.90;90.40
59505;DHT22;45321;53.200;5.814;2024-02-21T10:24:05;9.90;90.20
59505;DHT22;45321;53.200;5.814;2024-02-21T10:26:31;10.00;90.10
59505;DHT22;45321;53.200;5.814;2024-02-21T10:28:56;10.00;89.90
59505;DHT22;45321;53.200;5.814;2024-02-21T10:31:23;9.90;89.70
59505;DHT22;45321;53.200;5.814;2024-02-21T10:36:21;9.90;89.70
59505;DHT22;45321;53.200;5.814;2024-02-21T10:38:47;9.90;89.70
59505;DHT22;45321;53.200;5.814;2024-02-21T10:41:16;9.90;89.70
59505;DHT22;45321;53.200;5.814;2024-02-21T10:43:49;9.90;89.70
59505;DHT22;45321;53.200;5.814;2024-02-21T10:46:19;9.90;89.70
59505;DHT22;45321;53.200;5.814;2024-02-21T10:48:46;9.90;89.60
59505;DHT22;45321;53.200;5.814;2024-02-21T10:51:16;9.90;89.60
59505;DHT22;45321;53.200;5.814;2024-02-21T10:53:56;9.90;89.60
59505;DHT22;45321;53.200;5.814;2024-02-21T10:56:31;10.00;89.70
59505;DHT22;45321;53.200;5.814;2024-02-21T10:59:02;9.90;89.40
59505;DHT22;45321;53.200;5.814;2024-02-21T11:01:29;9.90;89.40
59505;DHT22;45321;53.200;5.814;2024-02-21T11:03:59;9.90;89.30
59505;DHT22;45321;53.200;5.814;2024-02-21T11:06:27;9.90;89.30
59505;DHT22;45321;53.200;5.814;2024-02-21T11:09:04;9.90;89.20
59505;DHT22;45321;53.200;5.814;2024-02-21T11:11:33;9.90;89.30
59505;DHT22;45321;53.200;5.814;2024-02-21T11:14:10;9.80;89.20
59505;DHT22;45321;53.200;5.814;2024-02-21T11:16:38;9.90;89.20
59505;DHT22;45321;53.200;5.814;2024-02-21T11:19:05;9.90;89.30
59505;DHT22;45321;53.200;5.814;2024-02-21T11:21:35;9.80;89.20
59505;DHT22;45321;53.200;5.814;2024-02-21T11:24:07;9.90;89.20
59505;DHT22;45321;53.200;5.814;2024-02-21T11:26:33;9.90;89.10
59505;DHT22;45321;53.200;5.814;2024-02-21T11:29:01;9.90;89.10
59505;DHT22;45321;53.200;5.814;2024-02-21T11:31:41;9.90;89.10
59505;DHT22;45321;53.200;5.814;2024-02-21T11:34:11;9.90;89.00
59505;DHT22;45321;53.200;5.814;2024-02-21T11:36:47;9.90;88.70
59505;DHT22;45321;53.200;5.814;2024-02-21T11:39:18;9.90;88.60
59505;DHT22;45321;53.200;5.814;2024-02-21T11:41:44;9.90;88.50
59505;DHT22;45321;53.200;5.814;2024-02-21T11:44:10;9.90;88.50
59505;DHT22;45321;53.200;5.814;2024-02-21T11:46:36;9.90;88.50
59505;DHT22;45321;53.200;5.814;2024-02-21T11:49:02;9.90;88.40
59505;DHT22;45321;53.200;5.814;2024-02-21T11:51:29;9.90;88.20
59505;DHT22;45321;53.200;5.814;2024-02-21T11:53:54;9.90;88.20
59505;DHT22;45321;53.200;5.814;2024-02-21T11:56:20;9.90;88.10
59505;DHT22;45321;53.200;5.814;2024-02-21T11:58:48;9.90;87.90
59505;DHT22;45321;53.200;5.814;2024-02-21T12:01:14;10.00;87.70
59505;DHT22;45321;53.200;5.814;2024-02-21T12:03:42;9.90;87.60
59505;DHT22;45321;53.200;5.814;2024-02-21T12:06:16;10.00;87.50
59505;DHT22;45321;53.200;5.814;2024-02-21T12:08:45;10.00;87.60
59505;DHT22;45321;53.200;5.814;2024-02-21T12:11:21;10.00;87.60
59505;DHT22;45321;53.200;5.814;2024-02-21T12:14:08;10.00;87.60
59505;DHT22;45321;53.200;5.814;2024-02-21T12:16:35;10.10;87.40
59505;DHT22;45321;53.200;5.814;2024-02-21T12:19:04;10.10;87.40
59505;DHT22;45321;53.200;5.814;2024-02-21T12:21:31;10.10;87.50
59505;DHT22;45321;53.200;5.814;2024-02-21T12:23:58;10.10;87.40
59505;DHT22;45321;53.200;5.814;2024-02-21T12:26:25;10.20;87.20
59505;DHT22;45321;53.200;5.814;2024-02-21T12:28:53;10.20;87.10
59505;DHT22;45321;53.200;5.814;2024-02-21T12:31:18;10.20;87.20
59505;DHT22;45321;53.200;5.814;2024-02-21T12:33:44;10.10;87.10
59505;DHT22;45321;53.200;5.814;2024-02-21T12:36:10;10.10;87.00
59505;DHT22;45321;53.200;5.814;2024-02-21T12:38:36;10.20;86.90
59505;DHT22;45321;53.200;5.814;2024-02-21T12:41:02;10.20;86.70
59505;DHT22;45321;53.200;5.814;2024-02-21T12:43:28;10.10;86.50
59505;DHT22;45321;53.200;5.814;2024-02-21T12:45:54;10.20;86.80
59505;DHT22;45321;53.200;5.814;2024-02-21T12:48:20;10.20;86.70
59505;DHT22;45321;53.200;5.814;2024-02-21T12:50:49;10.10;86.50
59505;DHT22;45321;53.200;5.814;2024-02-21T12:53:17;10.10;86.20
59505;DHT22;45321;53.200;5.814;2024-02-21T12:55:45;10.10;86.10
59505;DHT22;45321;53.200;5.814;2024-02-21T12:58:12;10.20;86.00
59505;DHT22;45321;53.200;5.814;2024-02-21T13:00:39;10.20;85.80
59505;DHT22;45321;53.200;5.814;2024-02-21T13:03:05;10.20;85.40
59505;DHT22;45321;53.200;5.814;2024-02-21T13:05:30;10.20;85.30
59505;DHT22;45321;53.200;5.814;2024-02-21T13:07:58;10.30;85.30
59505;DHT22;45321;53.200;5.814;2024-02-21T13:10:24;10.30;85.20
59505;DHT22;45321;53.200;5.814;2024-02-21T13:12:50;10.30;85.10
59505;DHT22;45321;53.200;5.814;2024-02-21T13:15:16;10.30;84.80
59505;DHT22;45321;53.200;5.814;2024-02-21T13:17:46;10.30;84.80
59505;DHT22;45321;53.200;5.814;2024-02-21T13:20:12;10.40;85.00
59505;DHT22;45321;53.200;5.814;2024-02-21T13:22:38;10.40;85.30
59505;DHT22;45321;53.200;5.814;2024-02-21T13:25:05;10.40;85.40
59505;DHT22;45321;53.200;5.814;2024-02-21T13:27:33;10.40;85.50
59505;DHT22;45321;53.200;5.814;2024-02-21T13:29:59;10.40;85.20
59505;DHT22;45321;53.200;5.814;2024-02-21T13:32:27;10.30;85.20
59505;DHT22;45321;53.200;5.814;2024-02-21T13:34:52;10.30;85.50
59505;DHT22;45321;53.200;5.814;2024-02-21T13:37:18;10.30;85.40
59505;DHT22;45321;53.200;5.814;2024-02-21T13:39:44;10.30;85.30
59505;DHT22;45321;53.200;5.814;2024-02-21T13:42:12;10.30;85.30
59505;DHT22;45321;53.200;5.814;2024-02-21T13:44:38;10.30;85.30
59505;DHT22;45321;53.200;5.814;2024-02-21T13:47:04;10.30;85.30
59505;DHT22;45321;53.200;5.814;2024-02-21T13:49:30;10.30;85.30
59505;DHT22;45321;53.200;5.814;2024-02-21T13:51:56;10.30;85.40
59505;DHT22;45321;53.200;5.814;2024-02-21T13:54:22;10.30;85.30
59505;DHT22;45321;53.200;5.814;2024-02-21T13:56:47;10.30;85.30
59505;DHT22;45321;53.200;5.814;2024-02-21T13:59:13;10.30;85.20
59505;DHT22;45321;53.200;5.814;2024-02-21T14:01:39;10.30;85.30
59505;DHT22;45321;53.200;5.814;2024-02-21T14:04:05;10.30;85.40
59505;DHT22;45321;53.200;5.814;2024-02-21T14:06:30;10.30;85.60
59505;DHT22;45321;53.200;5.814;2024-02-21T14:08:56;10.30;85.40
59505;DHT22;45321;53.200;5.814;2024-02-21T14:11:22;10.30;85.30
59505;DHT22;45321;53.200;5.814;2024-02-21T14:13:48;10.20;85.00
59505;DHT22;45321;53.200;5.814;2024-02-21T14:16:14;10.20;85.00
59505;DHT22;45321;53.200;5.814;2024-02-21T14:18:43;10.20;85.10
59505;DHT22;45321;53.200;5.814;2024-02-21T14:21:09;10.20;84.50
59505;DHT22;45321;53.200;5.814;2024-02-21T14:23:38;10.20;84.60
59505;DHT22;45321;53.200;5.814;2024-02-21T14:26:04;10.20;84.70
59505;DHT22;45321;53.200;5.814;2024-02-21T14:28:32;10.20;84.80
59505;DHT22;45321;53.200;5.814;2024-02-21T14:30:59;10.20;84.90
59505;DHT22;45321;53.200;5.814;2024-02-21T14:33:29;10.20;85.20
59505;DHT22;45321;53.200;5.814;2024-02-21T14:35:56;10.20;85.40
59505;DHT22;45321;53.200;5.814;2024-02-21T14:38:22;10.10;85.50
59505;DHT22;45321;53.200;5.814;2024-02-21T14:40:47;10.10;85.60
59505;DHT22;45321;53.200;5.814;2024-02-21T14:43:13;10.10;85.60
59505;DHT22;45321;53.200;5.814;2024-02-21T14:45:39;10.10;85.60
59505;DHT22;45321;53.200;5.814;2024-02-21T14:48:06;10.10;85.70
59505;DHT22;45321;53.200;5.814;2024-02-21T14:50:34;10.10;85.90
59505;DHT22;45321;53.200;5.814;2024-02-21T14:53:00;10.10;85.80
59505;DHT22;45321;53.200;5.814;2024-02-21T14:55:26;10.10;85.80
59505;DHT22;45321;53.200;5.814;2024-02-21T14:57:52;10.10;85.90
59505;DHT22;45321;53.200;5.814;2024-02-21T15:00:18;10.00;86.00
59505;DHT22;45321;53.200;5.814;2024-02-21T15:02:44;10.00;86.00
59505;DHT22;45321;53.200;5.814;2024-02-21T15:05:09;10.10;86.00
59505;DHT22;45321;53.200;5.814;2024-02-21T15:07:38;10.10;85.70
59505;DHT22;45321;53.200;5.814;2024-02-21T15:10:04;10.10;85.50
59505;DHT22;45321;53.200;5.814;2024-02-21T15:12:29;10.10;85.40
59505;DHT22;45321;53.200;5.814;2024-02-21T15:15:02;10.00;85.40
59505;DHT22;45321;53.200;5.814;2024-02-21T15:17:29;10.10;85.60
59505;DHT22;45321;53.200;5.814;2024-02-21T15:19:55;10.10;85.70
59505;DHT22;45321;53.200;5.814;2024-02-21T15:22:21;10.10;86.00
59505;DHT22;45321;53.200;5.814;2024-02-21T15:24:48;10.10;86.10
59505;DHT22;45321;53.200;5.814;2024-02-21T15:27:15;10.10;86.40
59505;DHT22;45321;53.200;5.814;2024-02-21T15:29:41;10.00;86.80
59505;DHT22;45321;53.200;5.814;2024-02-21T15:32:07;10.00;86.90
59505;DHT22;45321;53.200;5.814;2024-02-21T15:34:33;10.00;87.20
59505;DHT22;45321;53.200;5.814;2024-02-21T15:36:58;10.00;87.50
59505;DHT22;45321;53.200;5.814;2024-02-21T15:39:25;10.00;87.60
59505;DHT22;45321;53.200;5.814;2024-02-21T15:41:55;9.90;87.90
59505;DHT22;45321;53.200;5.814;2024-02-21T15:44:24;9.90;88.00